createdAt,value
2023-03-21T00:00:40.830Z,63.42
2023-03-21T00:03:09.009Z,54.38
2023-03-21T00:05:51.650Z,64.88
2023-03-21T00:08:23.906Z,55.75
2023-03-21T00:11:05.878Z,56.80
2023-03-21T00:13:38.354Z,60.42
2023-03-21T00:16:17.772Z,60.38
2023-03-21T00:18:55.017Z,56.10
2023-03-21T00:24:15.730Z,62.90
2023-03-21T00:26:42.936Z,55.35
2023-03-21T00:29:10.130Z,51.63
2023-03-21T00:31:37.745Z,54.90
2023-03-21T00:34:05.236Z,53.17
2023-03-21T00:36:32.785Z,51.33
2023-03-21T00:39:00.827Z,52.85
2023-03-21T00:41:41.602Z,52.03
2023-03-21T00:44:15.547Z,52.17
2023-03-21T00:46:54.400Z,53.00
2023-03-21T00:49:24.508Z,55.28
2023-03-21T00:51:53.303Z,52.05
2023-03-21T00:54:20.618Z,52.65
2023-03-21T00:56:47.834Z,55.05
2023-03-21T00:59:15.381Z,54.75
2023-03-21T01:01:46.497Z,55.88
2023-03-21T01:04:16.462Z,53.90
2023-03-21T01:06:45.088Z,56.75
2023-03-21T01:09:18.703Z,56.33
2023-03-21T01:11:46.345Z,55.33
2023-03-21T01:14:23.060Z,52.75
2023-03-21T01:16:53.362Z,56.20
2023-03-21T01:19:37.627Z,52.70
2023-03-21T01:22:12.288Z,52.97
2023-03-21T01:24:50.236Z,57.55
2023-03-21T01:27:20.321Z,57.53
2023-03-21T01:29:49.258Z,59.75
2023-03-21T01:32:16.722Z,57.47
2023-03-21T01:34:44.057Z,61.50
2023-03-21T01:37:11.357Z,57.50
2023-03-21T01:39:45.957Z,56.13
2023-03-21T01:42:14.247Z,52.58
2023-03-21T01:45:00.544Z,55.63
2023-03-21T01:47:38.932Z,58.33
2023-03-21T01:50:22.174Z,61.53
2023-03-21T01:52:58.375Z,53.40
2023-03-21T01:55:32.180Z,56.35
2023-03-21T01:58:12.642Z,55.75
2023-03-21T02:01:03.056Z,51.67
2023-03-21T02:03:52.448Z,55.40
2023-03-21T02:06:44.697Z,57.42
2023-03-21T02:09:34.764Z,56.35
2023-03-21T02:12:04.232Z,51.00
2023-03-21T02:14:36.501Z,52.55
2023-03-21T02:17:54.526Z,57.95
2023-03-21T02:21:58.858Z,56.58
2023-03-21T02:25:01.525Z,51.20
2023-03-21T02:27:46.964Z,52.35
2023-03-21T02:31:07.139Z,53.42
2023-03-21T02:33:37.147Z,55.38
2023-03-21T02:36:34.074Z,50.15
2023-03-21T02:39:24.327Z,56.70
2023-03-21T02:42:21.282Z,53.53
2023-03-21T02:45:35.103Z,52.78
2023-03-21T02:48:27.844Z,57.85
2023-03-21T02:51:01.039Z,50.45
2023-03-21T02:53:36.992Z,56.47
2023-03-21T02:56:10.661Z,54.67
2023-03-21T02:58:43.807Z,53.97
2023-03-21T03:01:11.174Z,55.50
2023-03-21T03:03:43.890Z,54.47
2023-03-21T03:06:27.617Z,54.65
2023-03-21T03:09:23.257Z,53.22
2023-03-21T03:12:23.046Z,55.38
2023-03-21T03:15:23.496Z,54.83
2023-03-21T03:18:52.802Z,57.03
2023-03-21T03:21:51.985Z,54.42
2023-03-21T03:24:46.082Z,58.13
2023-03-21T03:27:29.642Z,57.88
2023-03-21T03:30:02.142Z,64.25
2023-03-21T03:32:44.854Z,69.13
2023-03-21T03:35:18.080Z,61.88
2023-03-21T03:37:57.209Z,66.47
2023-03-21T03:40:35.922Z,61.53
2023-03-21T03:43:32.948Z,59.30
2023-03-21T03:46:16.796Z,61.10
2023-03-21T03:48:55.335Z,59.75
2023-03-21T03:51:53.092Z,62.17
2023-03-21T03:54:44.160Z,53.78
2023-03-21T03:57:13.778Z,64.47
2023-03-21T03:59:45.178Z,65.78
2023-03-21T04:02:24.576Z,61.22
2023-03-21T04:04:53.228Z,61.17
2023-03-21T04:07:22.271Z,60.72
2023-03-21T04:09:51.875Z,59.15
2023-03-21T04:12:21.048Z,63.42
2023-03-21T04:15:16.834Z,67.50
2023-03-21T04:17:49.073Z,59.38
2023-03-21T04:20:26.801Z,60.97
2023-03-21T04:23:01.953Z,56.58
2023-03-21T04:25:33.894Z,59.08
2023-03-21T04:28:03.293Z,61.33
2023-03-21T04:30:39.807Z,56.45
2023-03-21T04:33:13.567Z,65.25
2023-03-21T04:35:45.955Z,62.78
2023-03-21T04:38:14.568Z,59.53
2023-03-21T04:40:41.864Z,65.25
2023-03-21T04:43:09.126Z,53.85
2023-03-21T04:45:39.551Z,57.83
2023-03-21T04:48:06.831Z,61.22
2023-03-21T04:50:34.087Z,60.38
2023-03-21T04:53:01.235Z,59.38
2023-03-21T04:55:29.372Z,60.97
2023-03-21T04:57:56.573Z,62.03
2023-03-21T05:00:25.680Z,65.55
2023-03-21T05:02:52.914Z,59.00
2023-03-21T05:05:21.527Z,64.68
2023-03-21T05:07:48.756Z,60.50
2023-03-21T05:10:16.371Z,57.88
2023-03-21T05:12:43.985Z,62.83
2023-03-21T05:15:11.444Z,59.08
2023-03-21T05:17:38.821Z,60.78
2023-03-21T05:20:09.293Z,60.97
2023-03-21T05:22:40.424Z,59.58
2023-03-21T05:25:11.632Z,61.10
2023-03-21T05:27:57.464Z,64.20
2023-03-21T05:30:28.862Z,58.33
2023-03-21T05:33:00.296Z,58.53
2023-03-21T05:35:28.165Z,61.22
2023-03-21T05:37:58.175Z,68.97
2023-03-21T05:40:28.271Z,56.30
2023-03-21T05:42:58.183Z,58.67
2023-03-21T05:45:26.202Z,59.78
2023-03-21T05:47:54.157Z,54.28
2023-03-21T05:50:25.384Z,54.97
2023-03-21T05:53:07.063Z,56.63
2023-03-21T05:55:34.379Z,52.20
2023-03-21T05:58:01.896Z,56.50
2023-03-21T06:00:31.320Z,56.35
2023-03-21T06:03:21.436Z,59.88
2023-03-21T06:06:17.633Z,60.42
2023-03-21T06:08:54.540Z,53.88
2023-03-21T06:11:48.558Z,57.17
2023-03-21T06:14:26.074Z,63.05
2023-03-21T06:17:12.093Z,62.45
2023-03-21T06:19:46.312Z,60.38
2023-03-21T06:22:29.499Z,60.97
2023-03-21T06:24:56.756Z,61.53
2023-03-21T06:27:24.267Z,61.90
2023-03-21T06:29:54.514Z,54.85
2023-03-21T06:32:22.649Z,59.58
2023-03-21T06:34:54.950Z,63.53
2023-03-21T06:37:22.300Z,62.13
2023-03-21T06:39:49.664Z,65.65
2023-03-21T06:42:17.016Z,63.80
2023-03-21T06:44:44.217Z,64.53
2023-03-21T06:47:14.864Z,65.95
2023-03-21T06:49:44.610Z,64.93
2023-03-21T06:52:13.139Z,65.18
2023-03-21T06:54:41.133Z,70.93
2023-03-21T06:57:13.509Z,67.88
2023-03-21T06:59:43.394Z,70.75
2023-03-21T07:02:20.003Z,71.18
2023-03-21T07:05:06.725Z,69.30
2023-03-21T07:10:01.210Z,67.63
2023-03-21T07:12:34.221Z,68.32
2023-03-21T07:15:17.757Z,67.72
2023-03-21T07:17:46.670Z,72.93
2023-03-21T07:20:14.171Z,70.05
2023-03-21T07:22:41.481Z,75.82
2023-03-21T07:25:09.783Z,71.65
2023-03-21T07:27:41.535Z,70.80
2023-03-21T07:30:11.307Z,66.80
2023-03-21T07:32:39.350Z,71.35
2023-03-21T07:35:14.608Z,73.78
2023-03-21T07:37:43.002Z,69.15
2023-03-21T07:40:14.076Z,64.25
2023-03-21T07:42:41.862Z,68.47
2023-03-21T07:45:15.562Z,70.63
2023-03-21T07:47:43.279Z,75.68
2023-03-21T07:50:10.973Z,74.40
2023-03-21T07:52:38.934Z,73.55
2023-03-21T07:55:06.954Z,67.78
2023-03-21T07:57:34.709Z,71.07
2023-03-21T08:00:02.055Z,72.20
2023-03-21T08:02:29.374Z,67.63
2023-03-21T08:04:56.583Z,73.28
2023-03-21T08:07:23.777Z,73.05
2023-03-21T08:09:51.000Z,71.38
2023-03-21T08:12:18.161Z,69.93
2023-03-21T08:14:45.375Z,66.60
2023-03-21T08:17:12.549Z,67.03
2023-03-21T08:19:39.707Z,73.38
2023-03-21T08:22:06.904Z,72.13
2023-03-21T08:24:34.150Z,69.63
2023-03-21T08:27:02.203Z,63.85
2023-03-21T08:29:29.506Z,64.90
2023-03-21T08:31:58.002Z,68.75
2023-03-21T08:36:54.485Z,66.80
2023-03-21T08:39:21.933Z,72.38
2023-03-21T08:41:49.163Z,74.68
2023-03-21T08:44:17.018Z,70.43
2023-03-21T08:46:44.269Z,69.85
2023-03-21T08:49:12.680Z,70.50
2023-03-21T08:51:41.132Z,72.22
2023-03-21T08:56:37.383Z,72.05
2023-03-21T08:59:04.743Z,68.57
2023-03-21T09:01:32.626Z,71.30
2023-03-21T09:03:59.846Z,68.47
2023-03-21T09:06:27.524Z,69.78
2023-03-21T09:08:54.695Z,68.15
2023-03-21T09:11:21.857Z,65.95
2023-03-21T09:13:49.160Z,70.97
2023-03-21T09:16:16.444Z,70.95
2023-03-21T09:18:50.530Z,71.50
2023-03-21T09:21:19.965Z,71.25
2023-03-21T09:23:48.706Z,66.53
2023-03-21T09:26:17.138Z,76.72
2023-03-21T09:28:44.484Z,68.38
2023-03-21T09:31:14.586Z,65.88
2023-03-21T09:33:43.236Z,67.82
2023-03-21T09:36:14.025Z,65.82
2023-03-21T09:38:46.697Z,68.72
2023-03-21T09:41:34.987Z,74.03
2023-03-21T09:44:22.677Z,61.72
2023-03-21T09:47:25.209Z,72.82
2023-03-21T09:50:13.760Z,74.97
2023-03-21T09:53:18.626Z,70.63
2023-03-21T09:55:47.020Z,70.95
2023-03-21T09:58:36.522Z,70.20
2023-03-21T10:01:34.467Z,71.20
2023-03-21T10:04:07.192Z,66.68
2023-03-21T10:06:41.188Z,68.45
2023-03-21T10:09:22.853Z,66.43
2023-03-21T10:12:07.356Z,74.90
2023-03-21T10:14:44.452Z,67.65
2023-03-21T10:17:41.201Z,72.38
2023-03-21T10:20:26.799Z,69.68
2023-03-21T10:22:57.042Z,61.60
2023-03-21T10:25:39.715Z,72.28
2023-03-21T10:28:16.853Z,66.28
2023-03-21T10:30:49.379Z,71.70
2023-03-21T10:33:32.853Z,66.93
2023-03-21T10:36:09.439Z,74.30
2023-03-21T10:38:51.428Z,68.50
2023-03-21T10:41:21.150Z,63.45
2023-03-21T10:44:17.378Z,60.95
2023-03-21T10:47:09.565Z,63.67
2023-03-21T10:50:05.880Z,59.95
2023-03-21T10:52:30.372Z,65.82
2023-03-21T10:55:31.204Z,63.03
2023-03-21T10:58:18.707Z,62.35
2023-03-21T11:00:48.042Z,64.88
2023-03-21T11:03:39.261Z,61.17
2023-03-21T11:06:28.734Z,56.13
2023-03-21T11:09:23.162Z,44.75
2023-03-21T11:11:53.615Z,47.95
2023-03-21T11:14:41.794Z,38.90
2023-03-21T11:17:17.926Z,43.83
2023-03-21T11:20:09.166Z,43.00
2023-03-21T11:22:43.452Z,41.15
2023-03-21T11:27:56.254Z,48.83
2023-03-21T11:30:28.157Z,42.88
2023-03-21T11:33:03.311Z,51.90
2023-03-21T11:35:39.623Z,54.05
2023-03-21T11:38:27.613Z,48.90
2023-03-21T11:41:02.515Z,58.47
2023-03-21T11:43:40.379Z,49.80
2023-03-21T11:46:13.759Z,55.10
2023-03-21T11:48:45.205Z,47.78
2023-03-21T11:51:37.141Z,46.35
2023-03-21T11:54:42.060Z,48.22
2023-03-21T11:57:45.408Z,48.92
2023-03-21T12:00:34.792Z,50.13
2023-03-21T12:03:32.815Z,46.35
2023-03-21T12:06:40.596Z,39.55
2023-03-21T12:10:27.561Z,39.47
2023-03-21T12:13:26.872Z,45.20
2023-03-21T12:17:05.493Z,39.65
2023-03-21T12:20:12.759Z,37.53
2023-03-21T12:23:24.417Z,40.05
2023-03-21T12:26:19.568Z,35.05
2023-03-21T12:29:07.731Z,30.30
2023-03-21T12:32:15.823Z,31.63
2023-03-21T12:35:19.595Z,38.67
2023-03-21T12:38:38.160Z,35.63
2023-03-21T12:41:43.915Z,34.80
2023-03-21T12:44:17.233Z,33.35
2023-03-21T12:47:09.206Z,33.05
2023-03-21T12:49:56.259Z,36.55
2023-03-21T12:52:35.535Z,32.63
2023-03-21T12:55:32.574Z,33.53
2023-03-21T12:58:16.616Z,32.35
2023-03-21T13:00:56.690Z,29.58
2023-03-21T13:03:47.072Z,33.05
2023-03-21T13:06:18.332Z,29.23
2023-03-21T13:09:10.508Z,28.00
2023-03-21T13:11:38.260Z,28.40
2023-03-21T13:14:26.652Z,29.83
2023-03-21T13:17:04.332Z,30.17
2023-03-21T13:19:58.390Z,24.50
2023-03-21T13:22:31.104Z,26.77
2023-03-21T13:25:15.654Z,28.25
2023-03-21T13:27:46.077Z,28.67
2023-03-21T13:30:26.407Z,27.67
2023-03-21T13:35:42.902Z,25.92
2023-03-21T13:38:28.538Z,27.35
2023-03-21T13:41:17.891Z,26.25
2023-03-21T13:44:03.107Z,26.58
2023-03-21T13:46:34.168Z,23.00
2023-03-21T13:49:10.599Z,26.20
2023-03-21T13:51:43.487Z,23.70
2023-03-21T13:54:44.683Z,22.05
2023-03-21T13:57:32.021Z,28.08
2023-03-21T14:00:24.461Z,24.08
2023-03-21T14:03:06.432Z,25.00
2023-03-21T14:05:35.406Z,27.92
2023-03-21T14:08:24.727Z,23.05
2023-03-21T14:11:06.608Z,28.35
2023-03-21T14:13:38.003Z,29.10
2023-03-21T14:16:17.010Z,25.40
2023-03-21T14:18:54.393Z,24.70
2023-03-21T14:21:29.513Z,24.58
2023-03-21T14:24:07.353Z,28.05
2023-03-21T14:26:41.606Z,27.75
2023-03-21T14:31:59.832Z,25.73
2023-03-21T14:34:32.019Z,29.05
2023-03-21T14:36:59.474Z,28.58
2023-03-21T14:39:34.114Z,25.60
2023-03-21T14:42:14.855Z,25.55
2023-03-21T14:45:00.874Z,26.02
2023-03-21T14:47:36.665Z,27.25
2023-03-21T14:50:04.382Z,25.13
2023-03-21T14:52:34.366Z,27.08
2023-03-21T14:55:13.928Z,27.40
2023-03-21T14:57:41.598Z,26.70
2023-03-21T15:00:23.408Z,25.73
2023-03-21T15:02:52.782Z,29.05
2023-03-21T15:05:37.743Z,28.88
2023-03-21T15:08:17.315Z,27.48
2023-03-21T15:11:07.149Z,23.75
2023-03-21T15:13:52.368Z,26.27
2023-03-21T15:16:20.858Z,29.80
2023-03-21T15:18:49.852Z,27.88
2023-03-21T15:21:35.161Z,26.00
2023-03-21T15:24:15.770Z,25.25
2023-03-21T15:26:49.336Z,28.38
2023-03-21T15:29:18.104Z,27.88
2023-03-21T15:31:48.638Z,29.80
2023-03-21T15:34:28.352Z,27.80
2023-03-21T15:37:13.298Z,29.63
2023-03-21T15:39:40.633Z,30.02
2023-03-21T15:42:29.749Z,28.60
2023-03-21T15:45:01.980Z,29.48
2023-03-21T15:47:49.445Z,29.30
2023-03-21T15:50:43.251Z,32.50
2023-03-21T15:53:20.348Z,27.05
2023-03-21T15:55:52.600Z,28.33
2023-03-21T15:58:28.110Z,27.58
2023-03-21T16:01:01.896Z,28.25
2023-03-21T16:03:47.947Z,28.15
2023-03-21T16:06:17.103Z,28.95
2023-03-21T16:08:54.280Z,28.80
2023-03-21T16:11:28.301Z,35.08
2023-03-21T16:13:56.780Z,32.00
2023-03-21T16:16:30.558Z,29.40
2023-03-21T16:19:00.343Z,32.70
2023-03-21T16:21:34.059Z,34.30
2023-03-21T16:24:02.133Z,32.33
2023-03-21T16:26:43.519Z,35.60
2023-03-21T16:29:14.179Z,37.65
2023-03-21T16:31:42.558Z,41.83
2023-03-21T16:34:10.701Z,34.70
2023-03-21T16:39:21.923Z,32.88
2023-03-21T16:41:50.867Z,36.33
2023-03-21T16:44:19.983Z,32.45
2023-03-21T16:46:47.325Z,33.13
2023-03-21T16:49:24.838Z,31.80
2023-03-21T16:51:54.820Z,34.80
2023-03-21T16:54:22.311Z,31.20
2023-03-21T16:56:54.049Z,34.67
2023-03-21T16:59:21.823Z,35.58
2023-03-21T17:01:49.728Z,30.27
2023-03-21T17:04:18.926Z,34.33
2023-03-21T17:06:52.666Z,27.85
2023-03-21T17:09:27.148Z,31.13
2023-03-21T17:11:54.433Z,35.47
2023-03-21T17:14:22.165Z,37.08
2023-03-21T17:16:49.503Z,32.63
2023-03-21T17:19:27.307Z,28.73
2023-03-21T17:21:55.250Z,32.33
2023-03-21T17:24:23.763Z,32.35
2023-03-21T17:26:50.920Z,34.13
2023-03-21T17:29:18.095Z,29.65
2023-03-21T17:31:47.425Z,31.35
2023-03-21T17:34:15.802Z,31.08
2023-03-21T17:36:46.216Z,35.63
2023-03-21T17:39:24.928Z,31.17
2023-03-21T17:41:53.314Z,29.85
2023-03-21T17:44:21.620Z,34.85
2023-03-21T17:46:51.699Z,32.33
2023-03-21T17:49:19.891Z,31.02
2023-03-21T17:51:47.208Z,33.58
2023-03-21T17:54:14.424Z,35.22
2023-03-21T17:56:42.020Z,37.58
2023-03-21T17:59:14.228Z,32.60
2023-03-21T18:01:42.574Z,34.15
2023-03-21T18:04:10.923Z,37.63
2023-03-21T18:06:39.077Z,34.85
2023-03-21T18:09:11.376Z,35.13
2023-03-21T18:11:40.239Z,33.20
2023-03-21T18:14:16.181Z,36.22
2023-03-21T18:16:46.737Z,40.85
2023-03-21T18:19:14.550Z,36.50
2023-03-21T18:21:44.907Z,33.85
2023-03-21T18:24:13.204Z,35.28
2023-03-21T18:26:41.038Z,38.35
2023-03-21T18:30:08.095Z,37.70
2023-03-21T18:32:06.342Z,36.67
2023-03-21T18:34:38.752Z,37.22
2023-03-21T18:37:09.346Z,35.85
2023-03-21T18:39:38.184Z,41.88
2023-03-21T18:42:07.797Z,42.85
2023-03-21T18:44:45.546Z,42.05
2023-03-21T18:47:14.497Z,36.80
2023-03-21T18:50:13.304Z,56.03
2023-03-21T18:52:29.405Z,41.80
2023-03-21T18:54:56.558Z,42.67
2023-03-21T18:57:36.260Z,36.03
2023-03-21T19:00:17.290Z,40.20
2023-03-21T19:02:51.025Z,39.80
2023-03-21T19:05:23.461Z,45.60
2023-03-21T19:07:53.165Z,41.75
2023-03-21T19:10:23.564Z,40.83
2023-03-21T19:12:54.597Z,39.53
2023-03-21T19:15:24.115Z,40.72
2023-03-21T19:20:46.521Z,40.95
2023-03-21T19:23:14.261Z,41.20
2023-03-21T19:25:42.714Z,42.03
2023-03-21T19:28:10.044Z,45.08
2023-03-21T19:30:37.512Z,36.97
2023-03-21T19:33:05.189Z,41.60
2023-03-21T19:35:35.340Z,41.13
2023-03-21T19:38:03.608Z,39.90
2023-03-21T19:40:31.597Z,41.83
2023-03-21T19:42:58.880Z,45.35
2023-03-21T19:45:26.546Z,41.53
2023-03-21T19:47:53.901Z,40.85
2023-03-21T19:50:49.336Z,43.58
2023-03-21T19:53:08.762Z,41.45
2023-03-21T19:55:36.389Z,42.85
2023-03-21T19:58:04.136Z,45.80
2023-03-21T20:00:31.574Z,40.50
2023-03-21T20:02:58.923Z,41.22
2023-03-21T20:05:27.104Z,42.28
2023-03-21T20:07:57.191Z,41.15
2023-03-21T20:10:28.301Z,38.17
2023-03-21T20:12:56.300Z,43.58
2023-03-21T20:15:26.821Z,43.97
2023-03-21T20:17:56.104Z,39.08
2023-03-21T20:20:23.365Z,35.15
2023-03-21T20:23:06.347Z,38.88
2023-03-21T20:25:35.425Z,42.72
2023-03-21T20:28:25.551Z,42.03
2023-03-21T20:30:56.821Z,42.22
2023-03-21T20:33:25.049Z,41.13
2023-03-21T20:38:52.616Z,42.22
2023-03-21T20:44:34.333Z,41.72
2023-03-21T20:46:36.472Z,46.35
2023-03-21T20:49:06.616Z,48.15
2023-03-21T20:54:21.354Z,46.80
2023-03-21T20:56:48.882Z,45.35
2023-03-21T20:59:25.554Z,48.20
2023-03-21T21:01:54.142Z,47.55
2023-03-21T21:04:22.353Z,47.15
2023-03-21T21:06:50.341Z,50.22
2023-03-21T21:09:17.613Z,46.28
2023-03-21T21:14:32.014Z,44.88
2023-03-21T21:17:07.693Z,45.63
2023-03-21T21:19:44.689Z,46.20
2023-03-21T21:22:11.949Z,44.55
2023-03-21T21:24:39.327Z,43.88
2023-03-21T21:27:06.491Z,45.53
2023-03-21T21:29:34.472Z,48.08
2023-03-21T21:32:02.471Z,49.53
2023-03-21T21:34:30.332Z,51.45
2023-03-21T21:36:57.523Z,49.13
2023-03-21T21:39:26.436Z,48.35
2023-03-21T21:41:54.325Z,49.65
2023-03-21T21:44:21.701Z,52.53
2023-03-21T21:46:48.934Z,54.13
2023-03-21T21:49:16.424Z,47.70
2023-03-21T21:51:47.738Z,48.17
2023-03-21T21:54:18.303Z,45.33
2023-03-21T21:56:48.676Z,49.90
2023-03-21T21:59:16.226Z,47.08
2023-03-21T22:01:43.404Z,51.55
2023-03-21T22:04:11.337Z,46.95
2023-03-21T22:06:38.620Z,51.72
2023-03-21T22:09:06.965Z,46.95
2023-03-21T22:11:34.407Z,46.22
2023-03-21T22:14:02.221Z,46.53
2023-03-21T22:16:29.607Z,47.38
2023-03-21T22:18:56.980Z,46.42
2023-03-21T22:21:24.512Z,56.60
2023-03-21T22:23:51.818Z,46.25
2023-03-21T22:26:19.187Z,49.38
2023-03-21T22:28:46.505Z,49.67
2023-03-21T22:31:17.223Z,46.80
2023-03-21T22:33:45.705Z,52.05
2023-03-21T22:38:42.192Z,48.25
2023-03-21T22:41:10.929Z,44.38
2023-03-21T22:43:38.237Z,47.00
2023-03-21T22:46:06.516Z,49.00
2023-03-21T22:48:34.801Z,47.70
2023-03-21T22:51:02.216Z,49.38
2023-03-21T22:53:30.467Z,46.88
2023-03-21T22:55:57.729Z,50.15
2023-03-21T22:58:25.074Z,48.97
2023-03-21T23:00:52.451Z,51.25
2023-03-21T23:03:19.790Z,52.97
2023-03-21T23:05:47.142Z,53.17
2023-03-21T23:08:14.462Z,48.00
2023-03-21T23:10:43.884Z,51.45
2023-03-21T23:13:12.008Z,48.75
2023-03-21T23:15:39.964Z,49.67
2023-03-21T23:18:07.417Z,46.85
2023-03-21T23:20:35.086Z,48.42
2023-03-21T23:23:02.857Z,49.58
2023-03-21T23:25:30.400Z,49.33
2023-03-21T23:27:57.877Z,50.88
2023-03-21T23:30:26.203Z,52.58
2023-03-21T23:32:53.494Z,50.38
2023-03-21T23:35:21.072Z,45.50
2023-03-21T23:37:52.665Z,56.25
2023-03-21T23:40:21.236Z,49.47
2023-03-21T23:42:48.594Z,47.10
2023-03-21T23:45:16.051Z,49.35
2023-03-21T23:47:43.724Z,48.03
2023-03-21T23:50:11.606Z,48.75
2023-03-21T23:52:41.641Z,42.00
2023-03-21T23:55:09.765Z,46.50
2023-03-21T23:57:41.665Z,49.65
